createdAt,value
2023-04-16T00:01:31.090Z,2.12
2023-04-16T00:03:59.677Z,2.04
2023-04-16T00:06:28.723Z,2.01
2023-04-16T00:08:55.829Z,2.01
2023-04-16T00:11:22.862Z,1.95
2023-04-16T00:13:50.014Z,2.01
2023-04-16T00:16:17.099Z,2.01
2023-04-16T00:18:44.236Z,1.94
2023-04-16T00:21:13.607Z,1.91
2023-04-16T00:23:43.153Z,1.86
2023-04-16T00:26:10.232Z,1.79
2023-04-16T00:28:39.591Z,1.76
2023-04-16T00:31:06.626Z,1.73
2023-04-16T00:33:34.230Z,1.63
2023-04-16T00:36:01.625Z,1.60
2023-04-16T00:38:30.515Z,1.51
2023-04-16T00:41:02.302Z,1.44
2023-04-16T00:43:30.799Z,1.37
2023-04-16T00:45:58.216Z,1.37
2023-04-16T00:48:27.942Z,1.37
2023-04-16T00:50:55.660Z,1.38
2023-04-16T00:53:25.271Z,1.37
2023-04-16T00:55:52.371Z,1.32
2023-04-16T00:58:19.836Z,1.40
2023-04-16T01:00:46.768Z,1.46
2023-04-16T01:03:13.968Z,1.44
2023-04-16T01:05:41.086Z,1.41
2023-04-16T01:08:16.609Z,1.34
2023-04-16T01:10:49.753Z,1.25
2023-04-16T01:13:16.887Z,1.23
2023-04-16T01:15:44.139Z,1.19
2023-04-16T01:18:17.376Z,1.12
2023-04-16T01:20:44.876Z,1.21
2023-04-16T01:23:12.327Z,1.29
2023-04-16T01:25:43.911Z,1.28
2023-04-16T01:28:11.252Z,1.26
2023-04-16T01:30:38.169Z,1.30
2023-04-16T01:33:14.610Z,1.33
2023-04-16T01:35:44.296Z,1.33
2023-04-16T01:38:11.260Z,1.33
2023-04-16T01:40:38.433Z,1.26
2023-04-16T01:43:05.621Z,1.19
2023-04-16T01:45:33.787Z,1.21
2023-04-16T01:48:01.046Z,1.23
2023-04-16T01:50:31.325Z,1.27
2023-04-16T01:52:58.340Z,1.25
2023-04-16T01:55:25.393Z,1.25
2023-04-16T01:57:52.373Z,1.22
2023-04-16T02:00:22.901Z,1.20
2023-04-16T02:02:52.479Z,1.20
2023-04-16T02:05:26.522Z,1.20
2023-04-16T02:07:53.706Z,1.17
2023-04-16T02:10:20.887Z,1.16
2023-04-16T02:12:48.428Z,1.15
2023-04-16T02:15:16.748Z,1.11
2023-04-16T02:17:46.679Z,1.10
2023-04-16T02:20:13.927Z,1.06
2023-04-16T02:22:51.513Z,0.96
2023-04-16T02:25:21.005Z,0.89
2023-04-16T02:27:48.004Z,0.90
2023-04-16T02:30:25.404Z,0.83
2023-04-16T02:32:53.403Z,0.81
2023-04-16T02:35:21.400Z,0.72
2023-04-16T02:37:49.695Z,0.70
2023-04-16T02:40:17.701Z,0.67
2023-04-16T02:42:44.644Z,0.62
2023-04-16T02:45:12.175Z,0.59
2023-04-16T02:47:39.449Z,0.57
2023-04-16T02:50:07.743Z,0.54
2023-04-16T02:52:34.772Z,0.50
2023-04-16T02:55:01.763Z,0.47
2023-04-16T02:57:30.961Z,0.53
2023-04-16T02:59:58.093Z,0.54
2023-04-16T03:02:25.614Z,0.55
2023-04-16T03:04:52.635Z,0.61
2023-04-16T03:07:19.728Z,0.61
2023-04-16T03:09:46.744Z,0.60
2023-04-16T03:12:13.863Z,0.61
2023-04-16T03:14:41.372Z,0.66
2023-04-16T03:17:08.412Z,0.71
2023-04-16T03:19:35.620Z,0.74
2023-04-16T03:22:02.785Z,0.75
2023-04-16T03:24:29.852Z,0.76
2023-04-16T03:26:58.363Z,0.80
2023-04-16T03:29:26.843Z,0.82
2023-04-16T03:31:55.218Z,0.84
2023-04-16T03:34:23.664Z,0.90
2023-04-16T03:36:50.730Z,1.03
2023-04-16T03:39:20.032Z,1.21
2023-04-16T03:41:47.597Z,1.34
2023-04-16T03:44:17.645Z,1.48
2023-04-16T03:46:45.870Z,1.56
2023-04-16T03:49:13.044Z,1.69
2023-04-16T03:51:40.180Z,1.80
2023-04-16T03:54:08.832Z,2.00
2023-04-16T03:56:35.867Z,2.16
2023-04-16T03:59:03.106Z,2.25
2023-04-16T04:01:30.383Z,2.33
2023-04-16T04:03:58.354Z,2.47
2023-04-16T04:06:25.467Z,2.57
2023-04-16T04:08:52.455Z,2.58
2023-04-16T04:11:19.573Z,2.72
2023-04-16T04:13:47.336Z,2.75
2023-04-16T04:16:14.411Z,2.77
2023-04-16T04:18:44.619Z,2.79
2023-04-16T04:21:12.203Z,2.89
2023-04-16T04:23:39.334Z,2.99
2023-04-16T04:26:07.762Z,3.06
2023-04-16T04:28:35.610Z,3.16
2023-04-16T04:31:07.513Z,3.13
2023-04-16T04:33:34.557Z,3.15
2023-04-16T04:36:01.703Z,3.30
2023-04-16T04:38:30.198Z,3.40
2023-04-16T04:40:58.356Z,3.47
2023-04-16T04:43:27.452Z,3.46
2023-04-16T04:45:57.129Z,3.40
2023-04-16T04:48:27.772Z,3.43
2023-04-16T04:50:57.500Z,3.54
2023-04-16T04:53:24.702Z,3.59
2023-04-16T04:55:54.206Z,3.56
2023-04-16T04:58:24.366Z,3.55
2023-04-16T05:00:53.404Z,3.57
2023-04-16T05:03:27.659Z,3.63
2023-04-16T05:05:58.765Z,3.63
2023-04-16T05:08:28.816Z,3.71
2023-04-16T05:10:57.653Z,3.89
2023-04-16T05:13:24.630Z,4.12
2023-04-16T05:15:51.637Z,4.31
2023-04-16T05:18:18.660Z,4.56
2023-04-16T05:20:45.741Z,4.68
2023-04-16T05:23:12.677Z,4.90
2023-04-16T05:25:39.764Z,5.09
2023-04-16T05:28:06.744Z,5.31
2023-04-16T05:30:33.913Z,5.55
2023-04-16T05:33:07.263Z,5.69
2023-04-16T05:35:35.159Z,5.83
2023-04-16T05:38:04.532Z,5.85
2023-04-16T05:40:32.217Z,5.99
2023-04-16T05:42:59.161Z,6.06
2023-04-16T05:45:27.966Z,5.94
2023-04-16T05:47:55.308Z,5.95
2023-04-16T05:50:22.391Z,5.97
2023-04-16T05:52:49.371Z,6.06
2023-04-16T05:55:16.837Z,6.13
2023-04-16T05:57:43.773Z,6.34
2023-04-16T06:00:11.007Z,6.54
2023-04-16T06:02:41.750Z,6.76
2023-04-16T06:05:09.117Z,7.03
2023-04-16T06:07:36.197Z,7.25
2023-04-16T06:10:03.997Z,7.23
2023-04-16T06:12:32.519Z,7.09
2023-04-16T06:15:04.359Z,7.03
2023-04-16T06:17:31.857Z,7.03
2023-04-16T06:19:58.943Z,7.10
2023-04-16T06:22:26.061Z,7.15
2023-04-16T06:24:53.713Z,7.37
2023-04-16T06:27:20.959Z,7.72
2023-04-16T06:29:48.420Z,7.73
2023-04-16T06:32:17.432Z,7.63
2023-04-16T06:34:45.766Z,7.76
2023-04-16T06:37:12.876Z,8.19
2023-04-16T06:39:45.949Z,8.43
2023-04-16T06:42:13.069Z,8.47
2023-04-16T06:44:40.612Z,8.49
2023-04-16T06:47:15.346Z,8.50
2023-04-16T06:49:42.332Z,8.74
2023-04-16T06:52:12.148Z,8.72
2023-04-16T06:54:39.596Z,8.87
2023-04-16T06:57:06.700Z,9.13
2023-04-16T06:59:33.755Z,9.47
2023-04-16T07:02:01.564Z,9.35
2023-04-16T07:04:28.826Z,9.41
2023-04-16T07:06:56.614Z,9.39
2023-04-16T07:09:27.365Z,9.49
2023-04-16T07:11:55.045Z,9.66
2023-04-16T07:14:22.643Z,9.60
2023-04-16T07:16:49.929Z,9.50
2023-04-16T07:19:16.997Z,9.51
2023-04-16T07:21:44.387Z,9.64
2023-04-16T07:24:12.386Z,9.38
2023-04-16T07:26:39.849Z,9.18
2023-04-16T07:29:12.947Z,9.32
2023-04-16T07:31:40.165Z,9.31
2023-04-16T07:34:11.039Z,9.34
2023-04-16T07:36:42.037Z,9.50
2023-04-16T07:39:11.190Z,9.73
2023-04-16T07:41:40.138Z,9.79
2023-04-16T07:44:07.925Z,9.83
2023-04-16T07:46:45.447Z,9.97
2023-04-16T07:49:14.752Z,10.23
2023-04-16T07:51:45.034Z,10.52
2023-04-16T07:54:12.116Z,10.59
2023-04-16T07:56:39.969Z,10.61
2023-04-16T07:59:32.889Z,10.71
2023-04-16T08:02:00.110Z,10.87
2023-04-16T08:04:30.431Z,11.20
2023-04-16T08:06:59.957Z,11.47
2023-04-16T08:09:31.624Z,11.50
2023-04-16T08:12:02.359Z,11.42
2023-04-16T08:14:29.558Z,11.86
2023-04-16T08:16:56.619Z,12.48
2023-04-16T08:19:23.915Z,12.59
2023-04-16T08:21:51.392Z,12.92
2023-04-16T08:24:18.566Z,13.42
2023-04-16T08:26:45.994Z,13.68
2023-04-16T08:29:15.062Z,13.64
2023-04-16T08:31:43.173Z,13.93
2023-04-16T08:34:11.646Z,14.38
2023-04-16T08:36:38.892Z,14.60
2023-04-16T08:39:06.071Z,14.26
2023-04-16T08:41:39.698Z,14.13
2023-04-16T08:44:14.364Z,14.31
2023-04-16T08:46:44.615Z,14.24
2023-04-16T08:49:18.177Z,13.78
2023-04-16T08:51:50.842Z,13.43
2023-04-16T08:54:30.556Z,13.65
2023-04-16T08:56:59.039Z,13.75
2023-04-16T08:59:29.353Z,13.93
2023-04-16T09:02:21.904Z,14.47
2023-04-16T09:04:50.089Z,14.18
2023-04-16T09:07:19.893Z,14.52
2023-04-16T09:09:51.938Z,14.60
2023-04-16T09:12:19.660Z,14.24
2023-04-16T09:14:57.319Z,13.60
2023-04-16T09:17:29.359Z,13.30
2023-04-16T09:20:01.531Z,13.30
2023-04-16T09:22:30.718Z,13.44
2023-04-16T09:24:59.669Z,13.77
2023-04-16T09:27:27.221Z,13.92
2023-04-16T09:29:54.511Z,13.71
2023-04-16T09:32:27.329Z,13.70
2023-04-16T09:35:02.028Z,13.64
2023-04-16T09:37:32.936Z,13.62
2023-04-16T09:40:00.656Z,14.09
2023-04-16T09:42:32.690Z,14.97
2023-04-16T09:45:02.150Z,15.74
2023-04-16T09:47:45.906Z,15.46
2023-04-16T09:50:18.830Z,15.53
2023-04-16T09:52:51.758Z,15.71
2023-04-16T09:55:27.719Z,15.92
2023-04-16T09:58:01.693Z,17.28
2023-04-16T10:00:32.198Z,17.80
2023-04-16T10:03:07.196Z,16.98
2023-04-16T10:05:35.703Z,15.96
2023-04-16T10:08:03.463Z,15.30
2023-04-16T10:10:30.723Z,15.02
2023-04-16T10:12:58.553Z,16.72
2023-04-16T10:15:26.119Z,18.04
2023-04-16T10:17:54.039Z,18.47
2023-04-16T10:20:26.995Z,17.97
2023-04-16T10:22:54.791Z,18.44
2023-04-16T10:25:21.864Z,18.89
2023-04-16T10:27:50.656Z,18.94
2023-04-16T10:30:18.940Z,19.20
2023-04-16T10:32:49.339Z,19.30
2023-04-16T10:35:19.943Z,19.36
2023-04-16T10:37:49.200Z,20.21
2023-04-16T10:40:26.713Z,20.32
2023-04-16T10:42:59.677Z,20.77
2023-04-16T10:45:37.524Z,20.90
2023-04-16T10:48:10.157Z,20.38
2023-04-16T10:50:37.871Z,20.86
2023-04-16T10:53:29.420Z,20.86
2023-04-16T10:56:06.012Z,21.25
2023-04-16T10:58:36.460Z,21.10
2023-04-16T11:01:34.181Z,20.95
2023-04-16T11:04:22.952Z,21.32
2023-04-16T11:07:15.623Z,21.76
2023-04-16T11:10:00.088Z,22.53
2023-04-16T11:12:40.501Z,21.98
2023-04-16T11:15:08.042Z,21.43
2023-04-16T11:18:01.878Z,20.30
2023-04-16T11:20:32.202Z,20.37
2023-04-16T11:22:59.354Z,20.39
2023-04-16T11:25:31.927Z,20.81
2023-04-16T11:27:59.529Z,21.49
2023-04-16T11:30:41.241Z,21.74
2023-04-16T11:33:10.016Z,21.78
2023-04-16T11:35:40.521Z,22.13
2023-04-16T11:38:07.836Z,21.67
2023-04-16T11:40:36.148Z,21.67
2023-04-16T11:43:05.619Z,20.68
2023-04-16T11:45:32.627Z,20.69
2023-04-16T11:48:01.222Z,21.08
2023-04-16T11:50:28.938Z,22.08
2023-04-16T11:52:58.119Z,22.03
2023-04-16T11:55:25.662Z,19.68
2023-04-16T11:57:52.872Z,18.72
2023-04-16T12:00:24.862Z,19.08
2023-04-16T12:02:54.100Z,20.89
2023-04-16T12:05:33.868Z,21.86
2023-04-16T12:08:03.889Z,21.59
2023-04-16T12:10:35.155Z,22.37
2023-04-16T12:13:12.751Z,23.29
2023-04-16T12:15:56.848Z,23.38
2023-04-16T12:18:28.566Z,23.31
2023-04-16T12:20:58.413Z,23.40
2023-04-16T12:23:33.371Z,22.70
2023-04-16T12:26:10.745Z,22.65
2023-04-16T12:28:41.908Z,23.48
2023-04-16T12:31:10.892Z,24.26
2023-04-16T12:33:38.252Z,24.09
2023-04-16T12:36:19.236Z,23.58
2023-04-16T12:38:46.799Z,23.38
2023-04-16T12:41:13.854Z,24.05
2023-04-16T12:43:43.680Z,23.81
2023-04-16T12:46:11.120Z,24.16
2023-04-16T12:48:41.273Z,24.15
2023-04-16T12:51:10.149Z,24.09
2023-04-16T12:53:43.437Z,23.57
2023-04-16T12:56:10.551Z,22.68
2023-04-16T12:58:38.725Z,22.19
2023-04-16T13:01:05.749Z,23.42
2023-04-16T13:03:35.598Z,24.65
2023-04-16T13:06:03.465Z,25.20
2023-04-16T13:08:31.116Z,25.39
2023-04-16T13:10:58.212Z,26.09
2023-04-16T13:13:25.265Z,25.82
2023-04-16T13:15:54.531Z,25.47
2023-04-16T13:18:26.624Z,25.87
2023-04-16T13:20:54.422Z,25.97
2023-04-16T13:23:21.642Z,26.03
2023-04-16T13:25:50.580Z,24.30
2023-04-16T13:28:17.850Z,24.94
2023-04-16T13:30:46.862Z,25.55
2023-04-16T13:33:17.181Z,26.08
2023-04-16T13:35:44.221Z,24.96
2023-04-16T13:38:12.338Z,23.91
2023-04-16T13:40:42.044Z,23.57
2023-04-16T13:43:09.586Z,24.86
2023-04-16T13:45:38.009Z,25.49
2023-04-16T13:48:05.669Z,26.34
2023-04-16T13:50:36.074Z,26.17
2023-04-16T13:53:06.546Z,24.55
2023-04-16T13:55:33.763Z,23.84
2023-04-16T13:58:00.847Z,22.56
2023-04-16T14:00:28.588Z,20.90
2023-04-16T14:02:56.199Z,19.67
2023-04-16T14:05:26.605Z,20.81
2023-04-16T14:07:54.477Z,22.51
2023-04-16T14:10:26.754Z,23.31
2023-04-16T14:12:59.204Z,22.78
2023-04-16T14:15:28.991Z,22.22
2023-04-16T14:17:56.478Z,23.23
2023-04-16T14:20:23.629Z,24.44
2023-04-16T14:22:56.298Z,24.88
2023-04-16T14:25:26.627Z,23.83
2023-04-16T14:27:53.802Z,23.59
2023-04-16T14:30:34.817Z,23.47
2023-04-16T14:33:02.242Z,23.25
2023-04-16T14:35:30.227Z,23.60
2023-04-16T14:37:59.222Z,23.94
2023-04-16T14:40:35.521Z,24.65
2023-04-16T14:43:07.082Z,24.46
2023-04-16T14:45:35.076Z,23.57
2023-04-16T14:48:04.557Z,21.38
2023-04-16T14:50:31.850Z,19.46
2023-04-16T14:52:58.914Z,18.12
2023-04-16T14:55:26.498Z,17.33
2023-04-16T14:57:53.973Z,17.18
2023-04-16T15:00:31.836Z,16.25
2023-04-16T15:02:58.977Z,15.86
2023-04-16T15:05:26.727Z,15.37
2023-04-16T15:07:55.464Z,15.16
2023-04-16T15:10:22.651Z,14.91
2023-04-16T15:12:55.885Z,14.80
2023-04-16T15:15:25.765Z,14.60
2023-04-16T15:17:52.836Z,14.23
2023-04-16T15:20:20.214Z,14.35
2023-04-16T15:22:50.527Z,14.06
2023-04-16T15:25:21.039Z,14.00
2023-04-16T15:27:48.444Z,13.74
2023-04-16T15:30:15.899Z,13.33
2023-04-16T15:32:49.991Z,13.13
2023-04-16T15:35:17.053Z,12.96
2023-04-16T15:37:44.183Z,12.89
2023-04-16T15:40:12.075Z,12.86
2023-04-16T15:42:39.191Z,12.76
2023-04-16T15:45:06.693Z,12.66
2023-04-16T15:47:34.594Z,12.92
2023-04-16T15:50:01.866Z,12.97
2023-04-16T15:52:32.925Z,12.86
2023-04-16T15:55:02.359Z,12.58
2023-04-16T15:57:31.590Z,12.42
2023-04-16T16:00:07.089Z,12.40
2023-04-16T16:02:34.980Z,12.15
2023-04-16T16:05:03.413Z,12.01
2023-04-16T16:07:35.836Z,11.93
2023-04-16T16:10:06.242Z,11.92
2023-04-16T16:12:34.712Z,11.75
2023-04-16T16:15:11.389Z,11.75
2023-04-16T16:17:48.601Z,11.57
2023-04-16T16:20:16.594Z,11.59
2023-04-16T16:22:48.225Z,11.61
2023-04-16T16:25:18.241Z,11.55
2023-04-16T16:27:46.232Z,11.45
2023-04-16T16:30:14.378Z,11.36
2023-04-16T16:32:48.061Z,11.25
2023-04-16T16:35:16.658Z,11.25
2023-04-16T16:37:43.688Z,11.28
2023-04-16T16:40:13.369Z,11.38
2023-04-16T16:43:00.351Z,11.25
2023-04-16T16:45:49.482Z,11.25
2023-04-16T16:48:18.318Z,11.11
2023-04-16T16:51:09.565Z,11.08
2023-04-16T16:53:39.483Z,10.98
2023-04-16T16:56:25.294Z,11.00
2023-04-16T16:58:52.340Z,10.89
2023-04-16T17:01:25.688Z,10.83
2023-04-16T17:03:53.253Z,10.87
2023-04-16T17:06:25.459Z,10.87
2023-04-16T17:08:54.880Z,10.70
2023-04-16T17:11:27.709Z,10.68
2023-04-16T17:13:58.313Z,10.61
2023-04-16T17:16:25.553Z,10.48
2023-04-16T17:19:18.382Z,10.54
2023-04-16T17:21:45.684Z,10.57
2023-04-16T17:24:16.287Z,10.72
2023-04-16T17:27:02.307Z,10.76
2023-04-16T17:29:32.849Z,10.74
2023-04-16T17:32:00.020Z,10.81
2023-04-16T17:34:31.177Z,10.77
2023-04-16T17:36:58.180Z,10.80
2023-04-16T17:39:26.253Z,10.80
2023-04-16T17:41:58.655Z,10.79
2023-04-16T17:44:44.572Z,10.77
2023-04-16T17:47:12.282Z,10.66
2023-04-16T17:49:42.600Z,10.69
2023-04-16T17:52:16.166Z,10.71
2023-04-16T17:54:44.122Z,10.69
2023-04-16T17:57:32.056Z,10.57
2023-04-16T18:00:03.020Z,10.62
2023-04-16T18:02:41.103Z,10.53
2023-04-16T18:05:12.371Z,10.56
2023-04-16T18:07:39.877Z,10.55
2023-04-16T18:10:10.701Z,10.59
2023-04-16T18:12:40.450Z,10.57
2023-04-16T18:15:08.238Z,10.53
2023-04-16T18:17:35.406Z,10.45
2023-04-16T18:20:02.434Z,10.48
2023-04-16T18:22:31.952Z,10.40
2023-04-16T18:25:19.897Z,10.31
2023-04-16T18:28:14.069Z,10.30
2023-04-16T18:30:50.131Z,10.20
2023-04-16T18:33:53.410Z,10.14
2023-04-16T18:36:23.351Z,10.05
2023-04-16T18:39:01.086Z,10.03
2023-04-16T18:41:31.446Z,9.91
2023-04-16T18:43:59.179Z,9.83
2023-04-16T18:46:27.642Z,9.81
2023-04-16T18:49:06.476Z,9.74
2023-04-16T18:51:35.556Z,9.70
2023-04-16T18:54:06.132Z,9.64
2023-04-16T18:56:33.240Z,9.57
2023-04-16T18:59:19.751Z,9.46
2023-04-16T19:01:46.948Z,9.37
2023-04-16T19:04:15.159Z,9.32
2023-04-16T19:06:42.248Z,9.25
2023-04-16T19:09:11.415Z,9.20
2023-04-16T19:11:38.688Z,9.16
2023-04-16T19:14:06.142Z,9.08
2023-04-16T19:16:54.008Z,8.97
2023-04-16T19:19:21.201Z,8.88
2023-04-16T19:21:51.477Z,8.87
2023-04-16T19:24:19.958Z,8.79
2023-04-16T19:26:47.005Z,8.87
2023-04-16T19:29:14.099Z,8.86
2023-04-16T19:31:41.091Z,8.73
2023-04-16T19:34:08.186Z,8.70
2023-04-16T19:36:37.768Z,8.60
2023-04-16T19:39:04.974Z,8.63
2023-04-16T19:41:33.217Z,8.72
2023-04-16T19:44:02.865Z,8.68
2023-04-16T19:46:29.781Z,8.66
2023-04-16T19:49:16.178Z,8.64
2023-04-16T19:51:43.252Z,8.70
2023-04-16T19:54:10.374Z,8.66
2023-04-16T19:56:38.446Z,8.66
2023-04-16T19:59:05.483Z,8.55
2023-04-16T20:01:33.480Z,8.65
2023-04-16T20:04:07.233Z,8.49
2023-04-16T20:06:37.331Z,8.52
2023-04-16T20:09:09.709Z,8.58
2023-04-16T20:11:38.111Z,8.60
2023-04-16T20:14:05.205Z,8.65
2023-04-16T20:16:32.375Z,8.65
2023-04-16T20:19:04.072Z,8.59
2023-04-16T20:21:34.729Z,8.59
2023-04-16T20:24:03.114Z,8.55
2023-04-16T20:26:34.168Z,8.50
2023-04-16T20:29:01.743Z,8.48
2023-04-16T20:31:29.338Z,8.43
2023-04-16T20:33:56.618Z,8.30
2023-04-16T20:36:23.665Z,8.41
2023-04-16T20:38:53.779Z,8.41
2023-04-16T20:41:21.479Z,8.34
2023-04-16T20:43:55.654Z,8.25
2023-04-16T20:46:30.297Z,8.32
2023-04-16T20:48:57.657Z,8.20
2023-04-16T20:51:24.581Z,8.17
2023-04-16T20:53:53.990Z,8.20
2023-04-16T20:56:21.049Z,8.17
2023-04-16T20:58:48.107Z,8.16
2023-04-16T21:01:18.458Z,8.01
2023-04-16T21:03:46.071Z,8.02
2023-04-16T21:06:17.820Z,8.08
2023-04-16T21:08:45.517Z,7.99
2023-04-16T21:11:13.265Z,8.03
2023-04-16T21:13:40.333Z,7.95
2023-04-16T21:16:11.662Z,7.90
2023-04-16T21:18:38.893Z,7.92
2023-04-16T21:21:06.156Z,7.94
2023-04-16T21:23:33.273Z,7.92
2023-04-16T21:26:00.257Z,7.94
2023-04-16T21:28:27.656Z,7.93
2023-04-16T21:30:57.076Z,7.92
2023-04-16T21:33:24.080Z,7.87
2023-04-16T21:35:52.475Z,7.85
2023-04-16T21:38:20.409Z,7.82
2023-04-16T21:40:50.789Z,7.92
2023-04-16T21:43:17.990Z,7.91
2023-04-16T21:45:45.206Z,7.87
2023-04-16T21:48:12.553Z,7.82
2023-04-16T21:50:39.809Z,7.75
2023-04-16T21:53:06.856Z,7.71
2023-04-16T21:55:35.023Z,7.70
2023-04-16T21:58:05.489Z,7.72
2023-04-16T22:00:33.204Z,7.72
2023-04-16T22:03:04.925Z,7.71
2023-04-16T22:05:33.318Z,7.64
2023-04-16T22:08:17.098Z,7.62
2023-04-16T22:10:48.372Z,7.56
2023-04-16T22:13:18.023Z,7.58
2023-04-16T22:15:45.096Z,7.58
2023-04-16T22:18:12.240Z,7.51
2023-04-16T22:20:40.013Z,7.46
2023-04-16T22:23:07.103Z,7.49
2023-04-16T22:25:34.093Z,7.48
2023-04-16T22:28:07.299Z,7.48
2023-04-16T22:30:34.285Z,7.46
2023-04-16T22:33:02.125Z,7.35
2023-04-16T22:35:29.224Z,7.32
2023-04-16T22:37:56.309Z,7.24
2023-04-16T22:40:23.287Z,7.18
2023-04-16T22:42:53.140Z,7.13
2023-04-16T22:45:20.546Z,7.22
2023-04-16T22:47:49.101Z,7.21
2023-04-16T22:50:16.536Z,7.14
2023-04-16T22:52:43.600Z,7.10
2023-04-16T22:55:10.882Z,7.04
2023-04-16T22:57:40.777Z,7.04
2023-04-16T23:00:18.110Z,7.02
2023-04-16T23:02:46.654Z,7.03
2023-04-16T23:05:13.969Z,7.03
2023-04-16T23:07:41.420Z,7.05
2023-04-16T23:10:09.984Z,7.05
2023-04-16T23:12:40.649Z,7.05
2023-04-16T23:15:08.042Z,7.01
2023-04-16T23:17:35.558Z,7.01
2023-04-16T23:20:02.954Z,6.98
2023-04-16T23:22:30.333Z,6.97
2023-04-16T23:25:04.490Z,6.93
2023-04-16T23:27:32.610Z,6.88
2023-04-16T23:29:59.766Z,6.86
2023-04-16T23:32:28.299Z,6.84
2023-04-16T23:34:55.493Z,6.80
2023-04-16T23:37:22.409Z,6.74
2023-04-16T23:39:49.343Z,6.77
2023-04-16T23:42:19.284Z,6.75
2023-04-16T23:44:46.491Z,6.75
2023-04-16T23:47:13.482Z,6.76
2023-04-16T23:49:40.547Z,6.68
2023-04-16T23:52:07.733Z,6.58
2023-04-16T23:54:34.787Z,6.54
2023-04-16T23:57:01.823Z,6.57
2023-04-16T23:59:29.020Z,6.57
